Aviation Digital Data Service (ADDS)

Output produced by METARs form (2306 UTC 02 March 2015)
found at http://www.aviationweather.gov/adds/metars/
 
KPHL 022100Z 0221/0324 30014G24KT P6SM FEW040 
     FM022300 30010KT P6SM SCT250 
     FM030400 33005KT P6SM SCT250 
     FM031200 02005KT P6SM BKN150 
     FM031700 15005KT P6SM OVC080 
     FM032200 16008KT 2SM -SNPL BKN020 OVC035 WS020/19040KT